sensor_id;sensor_type;location;lat;lon;timestamp;P1;durP1;ratioP1;P2;durP2;ratioP2
27505;SDS011;14939;43.596;1.320;2022-07-03T00:00:43;5.93;;;2.30;;
27505;SDS011;14939;43.596;1.320;2022-07-03T00:03:09;5.38;;;2.15;;
27505;SDS011;14939;43.596;1.320;2022-07-03T00:05:35;2.95;;;2.20;;
27505;SDS011;14939;43.596;1.320;2022-07-03T00:08:03;3.85;;;2.17;;
27505;SDS011;14939;43.596;1.320;2022-07-03T00:10:28;3.25;;;2.10;;
27505;SDS011;14939;43.596;1.320;2022-07-03T00:12:54;2.75;;;1.60;;
27505;SDS011;14939;43.596;1.320;2022-07-03T00:15:20;3.72;;;2.20;;
27505;SDS011;14939;43.596;1.320;2022-07-03T00:17:46;3.22;;;2.03;;
27505;SDS011;14939;43.596;1.320;2022-07-03T00:20:11;5.13;;;2.13;;
27505;SDS011;14939;43.596;1.320;2022-07-03T00:22:37;5.03;;;1.98;;
27505;SDS011;14939;43.596;1.320;2022-07-03T00:25:08;5.13;;;2.70;;
27505;SDS011;14939;43.596;1.320;2022-07-03T00:27:36;5.07;;;2.08;;
27505;SDS011;14939;43.596;1.320;2022-07-03T00:30:04;2.80;;;2.08;;
27505;SDS011;14939;43.596;1.320;2022-07-03T00:32:33;3.25;;;1.80;;
27505;SDS011;14939;43.596;1.320;2022-07-03T00:35:02;3.83;;;1.80;;
27505;SDS011;14939;43.596;1.320;2022-07-03T00:37:28;4.03;;;1.80;;
27505;SDS011;14939;43.596;1.320;2022-07-03T00:39:54;4.85;;;1.70;;
27505;SDS011;14939;43.596;1.320;2022-07-03T00:42:22;2.50;;;1.70;;
27505;SDS011;14939;43.596;1.320;2022-07-03T00:44:52;8.68;;;2.10;;
27505;SDS011;14939;43.596;1.320;2022-07-03T00:47:21;4.18;;;1.75;;
27505;SDS011;14939;43.596;1.320;2022-07-03T00:49:50;6.40;;;2.10;;
27505;SDS011;14939;43.596;1.320;2022-07-03T00:52:17;3.60;;;1.67;;
27505;SDS011;14939;43.596;1.320;2022-07-03T00:54:50;3.33;;;1.60;;
27505;SDS011;14939;43.596;1.320;2022-07-03T00:57:17;3.95;;;1.60;;
27505;SDS011;14939;43.596;1.320;2022-07-03T00:59:45;4.22;;;1.67;;
27505;SDS011;14939;43.596;1.320;2022-07-03T01:02:14;3.20;;;1.70;;
27505;SDS011;14939;43.596;1.320;2022-07-03T01:13:07;3.95;;;1.45;;
27505;SDS011;14939;43.596;1.320;2022-07-03T01:18:23;6.40;;;1.90;;
27505;SDS011;14939;43.596;1.320;2022-07-03T01:20:51;3.08;;;1.60;;
27505;SDS011;14939;43.596;1.320;2022-07-03T01:23:24;4.93;;;1.73;;
27505;SDS011;14939;43.596;1.320;2022-07-03T01:26:01;4.28;;;1.60;;
27505;SDS011;14939;43.596;1.320;2022-07-03T01:28:30;6.30;;;1.33;;
27505;SDS011;14939;43.596;1.320;2022-07-03T01:31:01;3.28;;;1.30;;
27505;SDS011;14939;43.596;1.320;2022-07-03T01:33:30;4.22;;;1.40;;
27505;SDS011;14939;43.596;1.320;2022-07-03T01:38:27;2.50;;;1.20;;
27505;SDS011;14939;43.596;1.320;2022-07-03T01:40:54;5.43;;;1.20;;
27505;SDS011;14939;43.596;1.320;2022-07-03T01:43:22;4.93;;;1.10;;
27505;SDS011;14939;43.596;1.320;2022-07-03T01:45:52;5.38;;;1.40;;
27505;SDS011;14939;43.596;1.320;2022-07-03T01:48:20;5.07;;;1.35;;
27505;SDS011;14939;43.596;1.320;2022-07-03T01:50:47;2.10;;;1.48;;
27505;SDS011;14939;43.596;1.320;2022-07-03T01:53:14;3.70;;;1.25;;
27505;SDS011;14939;43.596;1.320;2022-07-03T01:55:42;3.03;;;1.10;;
27505;SDS011;14939;43.596;1.320;2022-07-03T01:58:09;2.47;;;0.90;;
27505;SDS011;14939;43.596;1.320;2022-07-03T02:00:46;4.20;;;1.23;;
27505;SDS011;14939;43.596;1.320;2022-07-03T02:03:26;2.80;;;1.00;;
27505;SDS011;14939;43.596;1.320;2022-07-03T02:05:58;8.55;;;1.35;;
27505;SDS011;14939;43.596;1.320;2022-07-03T02:11:33;2.80;;;1.20;;
27505;SDS011;14939;43.596;1.320;2022-07-03T02:19:09;4.15;;;1.40;;
27505;SDS011;14939;43.596;1.320;2022-07-03T02:21:37;4.03;;;1.60;;
27505;SDS011;14939;43.596;1.320;2022-07-03T02:24:18;3.47;;;1.40;;
27505;SDS011;14939;43.596;1.320;2022-07-03T02:26:56;3.80;;;1.65;;
27505;SDS011;14939;43.596;1.320;2022-07-03T02:29:30;4.20;;;1.50;;
27505;SDS011;14939;43.596;1.320;2022-07-03T02:32:00;3.83;;;1.70;;
27505;SDS011;14939;43.596;1.320;2022-07-03T02:34:28;4.45;;;1.67;;
27505;SDS011;14939;43.596;1.320;2022-07-03T02:36:58;6.47;;;1.98;;
27505;SDS011;14939;43.596;1.320;2022-07-03T02:39:50;10.05;;;1.95;;
27505;SDS011;14939;43.596;1.320;2022-07-03T02:44:56;6.85;;;1.77;;
27505;SDS011;14939;43.596;1.320;2022-07-03T02:52:30;6.63;;;1.90;;
27505;SDS011;14939;43.596;1.320;2022-07-03T03:01:13;8.80;;;1.70;;
27505;SDS011;14939;43.596;1.320;2022-07-03T03:06:54;9.07;;;1.98;;
27505;SDS011;14939;43.596;1.320;2022-07-03T03:09:44;8.55;;;2.20;;
27505;SDS011;14939;43.596;1.320;2022-07-03T03:12:12;5.25;;;2.15;;
27505;SDS011;14939;43.596;1.320;2022-07-03T03:14:39;7.65;;;2.30;;
27505;SDS011;14939;43.596;1.320;2022-07-03T03:17:08;8.63;;;2.30;;
27505;SDS011;14939;43.596;1.320;2022-07-03T03:19:41;6.85;;;2.10;;
27505;SDS011;14939;43.596;1.320;2022-07-03T03:24:43;7.50;;;2.25;;
27505;SDS011;14939;43.596;1.320;2022-07-03T03:27:09;7.38;;;2.10;;
27505;SDS011;14939;43.596;1.320;2022-07-03T03:29:35;11.43;;;2.20;;
27505;SDS011;14939;43.596;1.320;2022-07-03T03:32:02;5.20;;;2.30;;
27505;SDS011;14939;43.596;1.320;2022-07-03T03:34:29;6.85;;;2.05;;
27505;SDS011;14939;43.596;1.320;2022-07-03T03:36:56;7.07;;;2.15;;
27505;SDS011;14939;43.596;1.320;2022-07-03T03:39:22;3.97;;;2.22;;
27505;SDS011;14939;43.596;1.320;2022-07-03T03:41:48;9.45;;;2.53;;
27505;SDS011;14939;43.596;1.320;2022-07-03T03:44:15;9.98;;;2.58;;
27505;SDS011;14939;43.596;1.320;2022-07-03T03:46:40;8.10;;;2.40;;
27505;SDS011;14939;43.596;1.320;2022-07-03T03:49:06;7.30;;;2.72;;
27505;SDS011;14939;43.596;1.320;2022-07-03T03:51:32;9.07;;;2.20;;
27505;SDS011;14939;43.596;1.320;2022-07-03T03:53:57;10.32;;;2.60;;
27505;SDS011;14939;43.596;1.320;2022-07-03T03:56:23;7.78;;;2.40;;
27505;SDS011;14939;43.596;1.320;2022-07-03T03:58:49;10.02;;;2.58;;
27505;SDS011;14939;43.596;1.320;2022-07-03T04:01:15;5.70;;;2.45;;
27505;SDS011;14939;43.596;1.320;2022-07-03T04:03:40;10.38;;;2.70;;
27505;SDS011;14939;43.596;1.320;2022-07-03T04:06:06;8.52;;;2.53;;
27505;SDS011;14939;43.596;1.320;2022-07-03T04:08:32;9.23;;;2.60;;
27505;SDS011;14939;43.596;1.320;2022-07-03T04:10:58;9.35;;;2.80;;
27505;SDS011;14939;43.596;1.320;2022-07-03T04:13:24;6.93;;;2.45;;
27505;SDS011;14939;43.596;1.320;2022-07-03T04:15:51;7.60;;;2.63;;
27505;SDS011;14939;43.596;1.320;2022-07-03T04:18:19;7.28;;;2.50;;
27505;SDS011;14939;43.596;1.320;2022-07-03T04:20:45;3.20;;;2.28;;
27505;SDS011;14939;43.596;1.320;2022-07-03T04:23:10;7.85;;;2.50;;
27505;SDS011;14939;43.596;1.320;2022-07-03T04:25:36;7.22;;;2.50;;
27505;SDS011;14939;43.596;1.320;2022-07-03T04:28:02;7.78;;;2.38;;
27505;SDS011;14939;43.596;1.320;2022-07-03T04:30:28;9.68;;;2.65;;
27505;SDS011;14939;43.596;1.320;2022-07-03T04:32:53;8.65;;;2.40;;
27505;SDS011;14939;43.596;1.320;2022-07-03T04:35:19;8.98;;;2.33;;
27505;SDS011;14939;43.596;1.320;2022-07-03T04:37:45;8.18;;;2.55;;
27505;SDS011;14939;43.596;1.320;2022-07-03T04:40:11;12.82;;;2.60;;
27505;SDS011;14939;43.596;1.320;2022-07-03T04:42:38;10.27;;;2.65;;
27505;SDS011;14939;43.596;1.320;2022-07-03T04:45:04;9.00;;;3.10;;
27505;SDS011;14939;43.596;1.320;2022-07-03T04:47:30;9.73;;;2.80;;
27505;SDS011;14939;43.596;1.320;2022-07-03T04:49:55;9.13;;;2.70;;
27505;SDS011;14939;43.596;1.320;2022-07-03T04:52:21;9.75;;;2.50;;
27505;SDS011;14939;43.596;1.320;2022-07-03T04:54:47;5.28;;;2.20;;
27505;SDS011;14939;43.596;1.320;2022-07-03T04:57:13;9.23;;;2.53;;
27505;SDS011;14939;43.596;1.320;2022-07-03T04:59:39;5.90;;;2.10;;
27505;SDS011;14939;43.596;1.320;2022-07-03T05:02:04;8.05;;;2.35;;
27505;SDS011;14939;43.596;1.320;2022-07-03T05:04:30;11.57;;;2.67;;
27505;SDS011;14939;43.596;1.320;2022-07-03T05:06:56;8.52;;;2.30;;
27505;SDS011;14939;43.596;1.320;2022-07-03T05:09:22;4.95;;;2.03;;
27505;SDS011;14939;43.596;1.320;2022-07-03T05:11:47;7.65;;;2.40;;
27505;SDS011;14939;43.596;1.320;2022-07-03T05:14:13;9.57;;;2.92;;
27505;SDS011;14939;43.596;1.320;2022-07-03T05:16:39;8.68;;;2.38;;
27505;SDS011;14939;43.596;1.320;2022-07-03T05:19:05;5.28;;;2.10;;
27505;SDS011;14939;43.596;1.320;2022-07-03T05:21:31;12.93;;;2.60;;
27505;SDS011;14939;43.596;1.320;2022-07-03T05:23:57;9.25;;;2.40;;
27505;SDS011;14939;43.596;1.320;2022-07-03T05:26:22;7.68;;;2.50;;
27505;SDS011;14939;43.596;1.320;2022-07-03T05:28:48;7.47;;;2.20;;
27505;SDS011;14939;43.596;1.320;2022-07-03T05:31:14;10.85;;;2.88;;
27505;SDS011;14939;43.596;1.320;2022-07-03T05:33:40;8.00;;;2.40;;
27505;SDS011;14939;43.596;1.320;2022-07-03T05:36:05;8.48;;;2.30;;
27505;SDS011;14939;43.596;1.320;2022-07-03T05:38:32;9.68;;;2.22;;
27505;SDS011;14939;43.596;1.320;2022-07-03T05:41:16;7.93;;;1.95;;
27505;SDS011;14939;43.596;1.320;2022-07-03T05:43:42;9.02;;;2.38;;
27505;SDS011;14939;43.596;1.320;2022-07-03T05:46:08;8.93;;;2.47;;
27505;SDS011;14939;43.596;1.320;2022-07-03T05:48:34;8.57;;;2.20;;
27505;SDS011;14939;43.596;1.320;2022-07-03T05:50:59;5.75;;;2.15;;
27505;SDS011;14939;43.596;1.320;2022-07-03T05:53:26;8.05;;;2.10;;
27505;SDS011;14939;43.596;1.320;2022-07-03T05:55:51;7.82;;;2.45;;
27505;SDS011;14939;43.596;1.320;2022-07-03T05:58:17;9.55;;;2.30;;
27505;SDS011;14939;43.596;1.320;2022-07-03T06:00:43;6.30;;;2.33;;
27505;SDS011;14939;43.596;1.320;2022-07-03T06:03:09;6.88;;;2.10;;
27505;SDS011;14939;43.596;1.320;2022-07-03T06:05:35;10.23;;;2.40;;
27505;SDS011;14939;43.596;1.320;2022-07-03T06:08:00;8.05;;;2.22;;
27505;SDS011;14939;43.596;1.320;2022-07-03T06:10:27;10.82;;;2.40;;
27505;SDS011;14939;43.596;1.320;2022-07-03T06:12:53;7.35;;;1.92;;
27505;SDS011;14939;43.596;1.320;2022-07-03T06:15:19;9.70;;;2.15;;
27505;SDS011;14939;43.596;1.320;2022-07-03T06:17:45;8.05;;;2.30;;
27505;SDS011;14939;43.596;1.320;2022-07-03T06:20:11;5.47;;;2.33;;
27505;SDS011;14939;43.596;1.320;2022-07-03T06:22:38;6.18;;;2.30;;
27505;SDS011;14939;43.596;1.320;2022-07-03T06:25:05;5.90;;;2.10;;
27505;SDS011;14939;43.596;1.320;2022-07-03T06:27:31;5.75;;;2.15;;
27505;SDS011;14939;43.596;1.320;2022-07-03T06:29:57;8.70;;;1.90;;
27505;SDS011;14939;43.596;1.320;2022-07-03T06:32:23;9.40;;;2.35;;
27505;SDS011;14939;43.596;1.320;2022-07-03T06:34:49;6.47;;;2.17;;
27505;SDS011;14939;43.596;1.320;2022-07-03T06:37:15;9.57;;;2.25;;
27505;SDS011;14939;43.596;1.320;2022-07-03T06:39:40;8.35;;;2.30;;
27505;SDS011;14939;43.596;1.320;2022-07-03T06:42:06;9.00;;;2.80;;
27505;SDS011;14939;43.596;1.320;2022-07-03T06:44:32;6.78;;;2.40;;
27505;SDS011;14939;43.596;1.320;2022-07-03T06:46:58;6.03;;;2.30;;
27505;SDS011;14939;43.596;1.320;2022-07-03T06:49:28;10.13;;;2.50;;
27505;SDS011;14939;43.596;1.320;2022-07-03T06:51:59;9.40;;;2.57;;
27505;SDS011;14939;43.596;1.320;2022-07-03T06:54:25;7.43;;;2.42;;
27505;SDS011;14939;43.596;1.320;2022-07-03T06:56:51;5.45;;;2.45;;
27505;SDS011;14939;43.596;1.320;2022-07-03T06:59:17;7.20;;;2.42;;
27505;SDS011;14939;43.596;1.320;2022-07-03T07:01:43;5.72;;;2.42;;
27505;SDS011;14939;43.596;1.320;2022-07-03T07:04:09;6.00;;;2.40;;
27505;SDS011;14939;43.596;1.320;2022-07-03T07:06:35;6.93;;;2.40;;
27505;SDS011;14939;43.596;1.320;2022-07-03T07:09:01;6.55;;;2.50;;
27505;SDS011;14939;43.596;1.320;2022-07-03T07:11:27;9.77;;;2.63;;
27505;SDS011;14939;43.596;1.320;2022-07-03T07:13:53;4.78;;;2.20;;
27505;SDS011;14939;43.596;1.320;2022-07-03T07:16:18;6.70;;;2.30;;
27505;SDS011;14939;43.596;1.320;2022-07-03T07:18:44;6.93;;;2.25;;
27505;SDS011;14939;43.596;1.320;2022-07-03T07:21:10;6.70;;;2.35;;
27505;SDS011;14939;43.596;1.320;2022-07-03T07:23:35;7.45;;;2.53;;
27505;SDS011;14939;43.596;1.320;2022-07-03T07:26:02;11.25;;;2.50;;
27505;SDS011;14939;43.596;1.320;2022-07-03T07:28:28;9.65;;;2.20;;
27505;SDS011;14939;43.596;1.320;2022-07-03T07:30:54;4.82;;;2.25;;
27505;SDS011;14939;43.596;1.320;2022-07-03T07:33:21;10.45;;;2.30;;
27505;SDS011;14939;43.596;1.320;2022-07-03T07:35:47;6.72;;;2.35;;
27505;SDS011;14939;43.596;1.320;2022-07-03T07:38:13;5.97;;;2.25;;
27505;SDS011;14939;43.596;1.320;2022-07-03T07:40:39;7.30;;;2.80;;
27505;SDS011;14939;43.596;1.320;2022-07-03T07:43:05;5.35;;;2.38;;
27505;SDS011;14939;43.596;1.320;2022-07-03T07:45:30;4.93;;;2.22;;
27505;SDS011;14939;43.596;1.320;2022-07-03T07:47:56;5.35;;;2.05;;
27505;SDS011;14939;43.596;1.320;2022-07-03T07:50:22;6.55;;;2.40;;
27505;SDS011;14939;43.596;1.320;2022-07-03T07:52:48;9.32;;;2.83;;
27505;SDS011;14939;43.596;1.320;2022-07-03T07:55:13;7.22;;;2.50;;
27505;SDS011;14939;43.596;1.320;2022-07-03T07:57:39;8.98;;;2.47;;
27505;SDS011;14939;43.596;1.320;2022-07-03T08:02:32;7.10;;;2.40;;
27505;SDS011;14939;43.596;1.320;2022-07-03T08:05:16;8.80;;;2.42;;
27505;SDS011;14939;43.596;1.320;2022-07-03T08:08:00;7.97;;;2.30;;
27505;SDS011;14939;43.596;1.320;2022-07-03T08:10:27;7.75;;;2.30;;
27505;SDS011;14939;43.596;1.320;2022-07-03T08:12:53;8.82;;;2.30;;
27505;SDS011;14939;43.596;1.320;2022-07-03T08:15:18;4.85;;;2.20;;
27505;SDS011;14939;43.596;1.320;2022-07-03T08:17:44;6.03;;;2.22;;
27505;SDS011;14939;43.596;1.320;2022-07-03T08:20:10;6.13;;;2.65;;
27505;SDS011;14939;43.596;1.320;2022-07-03T08:22:36;5.78;;;2.40;;
27505;SDS011;14939;43.596;1.320;2022-07-03T08:25:01;7.30;;;2.50;;
27505;SDS011;14939;43.596;1.320;2022-07-03T08:27:27;5.03;;;2.45;;
27505;SDS011;14939;43.596;1.320;2022-07-03T08:29:53;9.70;;;2.50;;
27505;SDS011;14939;43.596;1.320;2022-07-03T08:32:18;6.05;;;2.30;;
27505;SDS011;14939;43.596;1.320;2022-07-03T08:34:44;5.68;;;2.95;;
27505;SDS011;14939;43.596;1.320;2022-07-03T08:37:10;5.90;;;2.20;;
27505;SDS011;14939;43.596;1.320;2022-07-03T08:39:35;6.43;;;2.42;;
27505;SDS011;14939;43.596;1.320;2022-07-03T08:46:57;6.00;;;2.47;;
27505;SDS011;14939;43.596;1.320;2022-07-03T08:49:25;3.17;;;2.25;;
27505;SDS011;14939;43.596;1.320;2022-07-03T08:51:52;8.77;;;2.40;;
27505;SDS011;14939;43.596;1.320;2022-07-03T08:54:19;12.20;;;2.53;;
27505;SDS011;14939;43.596;1.320;2022-07-03T08:56:45;4.88;;;2.35;;
27505;SDS011;14939;43.596;1.320;2022-07-03T08:59:12;4.38;;;2.20;;
27505;SDS011;14939;43.596;1.320;2022-07-03T09:01:38;5.03;;;2.08;;
27505;SDS011;14939;43.596;1.320;2022-07-03T09:04:10;5.10;;;2.13;;
27505;SDS011;14939;43.596;1.320;2022-07-03T09:06:40;6.32;;;2.60;;
27505;SDS011;14939;43.596;1.320;2022-07-03T09:09:06;7.18;;;2.08;;
27505;SDS011;14939;43.596;1.320;2022-07-03T09:11:38;7.78;;;2.33;;
27505;SDS011;14939;43.596;1.320;2022-07-03T09:14:04;4.03;;;1.92;;
27505;SDS011;14939;43.596;1.320;2022-07-03T09:16:34;4.75;;;2.20;;
27505;SDS011;14939;43.596;1.320;2022-07-03T09:19:00;3.97;;;2.20;;
27505;SDS011;14939;43.596;1.320;2022-07-03T09:21:40;7.15;;;2.47;;
27505;SDS011;14939;43.596;1.320;2022-07-03T09:24:07;6.22;;;2.47;;
27505;SDS011;14939;43.596;1.320;2022-07-03T09:26:34;9.18;;;2.28;;
27505;SDS011;14939;43.596;1.320;2022-07-03T09:29:00;7.88;;;2.35;;
27505;SDS011;14939;43.596;1.320;2022-07-03T09:31:27;3.97;;;2.13;;
27505;SDS011;14939;43.596;1.320;2022-07-03T09:33:58;6.90;;;1.95;;
27505;SDS011;14939;43.596;1.320;2022-07-03T09:39:20;7.50;;;2.17;;
27505;SDS011;14939;43.596;1.320;2022-07-03T09:42:08;8.77;;;2.13;;
27505;SDS011;14939;43.596;1.320;2022-07-03T09:44:40;16.35;;;2.33;;
27505;SDS011;14939;43.596;1.320;2022-07-03T09:47:16;5.95;;;2.20;;
27505;SDS011;14939;43.596;1.320;2022-07-03T09:49:50;5.45;;;2.00;;
27505;SDS011;14939;43.596;1.320;2022-07-03T09:57:36;3.63;;;1.88;;
27505;SDS011;14939;43.596;1.320;2022-07-03T10:02:36;5.53;;;1.95;;
27505;SDS011;14939;43.596;1.320;2022-07-03T10:05:16;7.95;;;2.50;;
27505;SDS011;14939;43.596;1.320;2022-07-03T10:07:54;8.43;;;2.33;;
27505;SDS011;14939;43.596;1.320;2022-07-03T10:10:23;3.17;;;1.95;;
27505;SDS011;14939;43.596;1.320;2022-07-03T10:12:51;8.50;;;2.15;;
27505;SDS011;14939;43.596;1.320;2022-07-03T10:15:18;7.03;;;2.67;;
27505;SDS011;14939;43.596;1.320;2022-07-03T10:17:49;6.30;;;2.47;;
27505;SDS011;14939;43.596;1.320;2022-07-03T10:20:19;4.13;;;1.80;;
27505;SDS011;14939;43.596;1.320;2022-07-03T10:22:49;7.20;;;1.90;;
27505;SDS011;14939;43.596;1.320;2022-07-03T10:25:16;4.03;;;1.75;;
27505;SDS011;14939;43.596;1.320;2022-07-03T10:27:43;3.35;;;2.00;;
27505;SDS011;14939;43.596;1.320;2022-07-03T10:30:11;4.15;;;1.60;;
27505;SDS011;14939;43.596;1.320;2022-07-03T10:32:42;5.70;;;2.20;;
27505;SDS011;14939;43.596;1.320;2022-07-03T10:35:10;3.95;;;1.73;;
27505;SDS011;14939;43.596;1.320;2022-07-03T10:37:43;6.10;;;2.50;;
27505;SDS011;14939;43.596;1.320;2022-07-03T10:43:29;5.40;;;1.97;;
27505;SDS011;14939;43.596;1.320;2022-07-03T10:46:17;3.28;;;1.67;;
27505;SDS011;14939;43.596;1.320;2022-07-03T10:51:25;3.03;;;1.88;;
27505;SDS011;14939;43.596;1.320;2022-07-03T11:07:24;5.28;;;1.90;;
27505;SDS011;14939;43.596;1.320;2022-07-03T11:20:31;5.60;;;2.10;;
27505;SDS011;14939;43.596;1.320;2022-07-03T11:39:04;5.25;;;1.60;;
27505;SDS011;14939;43.596;1.320;2022-07-03T11:41:29;4.82;;;1.60;;
27505;SDS011;14939;43.596;1.320;2022-07-03T11:44:07;4.55;;;1.60;;
27505;SDS011;14939;43.596;1.320;2022-07-03T11:46:35;3.88;;;1.90;;
27505;SDS011;14939;43.596;1.320;2022-07-03T11:51:31;7.68;;;1.83;;
27505;SDS011;14939;43.596;1.320;2022-07-03T11:53:57;4.15;;;1.85;;
27505;SDS011;14939;43.596;1.320;2022-07-03T11:56:23;5.80;;;1.70;;
27505;SDS011;14939;43.596;1.320;2022-07-03T12:03:50;4.20;;;1.50;;
27505;SDS011;14939;43.596;1.320;2022-07-03T12:06:44;4.57;;;1.40;;
27505;SDS011;14939;43.596;1.320;2022-07-03T12:19:51;3.83;;;1.40;;
27505;SDS011;14939;43.596;1.320;2022-07-03T12:25:01;5.72;;;1.50;;
27505;SDS011;14939;43.596;1.320;2022-07-03T12:27:31;5.78;;;1.55;;
27505;SDS011;14939;43.596;1.320;2022-07-03T12:30:00;3.60;;;1.55;;
27505;SDS011;14939;43.596;1.320;2022-07-03T12:32:26;4.03;;;1.65;;
27505;SDS011;14939;43.596;1.320;2022-07-03T12:34:53;4.60;;;1.55;;
27505;SDS011;14939;43.596;1.320;2022-07-03T12:40:11;3.08;;;1.40;;
27505;SDS011;14939;43.596;1.320;2022-07-03T12:42:47;6.00;;;1.63;;
27505;SDS011;14939;43.596;1.320;2022-07-03T12:45:20;4.28;;;1.40;;
27505;SDS011;14939;43.596;1.320;2022-07-03T12:47:58;3.70;;;1.48;;
27505;SDS011;14939;43.596;1.320;2022-07-03T12:50:44;3.30;;;1.45;;
27505;SDS011;14939;43.596;1.320;2022-07-03T12:53:29;5.93;;;1.58;;
27505;SDS011;14939;43.596;1.320;2022-07-03T12:56:06;4.97;;;1.35;;
27505;SDS011;14939;43.596;1.320;2022-07-03T12:58:34;6.57;;;1.40;;
27505;SDS011;14939;43.596;1.320;2022-07-03T13:01:28;4.30;;;1.40;;
27505;SDS011;14939;43.596;1.320;2022-07-03T13:03:58;6.18;;;1.50;;
27505;SDS011;14939;43.596;1.320;2022-07-03T13:06:24;4.38;;;1.52;;
27505;SDS011;14939;43.596;1.320;2022-07-03T13:09:04;3.05;;;1.58;;
27505;SDS011;14939;43.596;1.320;2022-07-03T13:11:34;2.38;;;1.27;;
27505;SDS011;14939;43.596;1.320;2022-07-03T13:14:06;4.15;;;1.70;;
27505;SDS011;14939;43.596;1.320;2022-07-03T13:16:43;4.00;;;1.50;;
27505;SDS011;14939;43.596;1.320;2022-07-03T13:19:10;4.95;;;1.40;;
27505;SDS011;14939;43.596;1.320;2022-07-03T13:21:39;2.75;;;1.40;;
27505;SDS011;14939;43.596;1.320;2022-07-03T13:24:06;2.80;;;1.65;;
27505;SDS011;14939;43.596;1.320;2022-07-03T13:26:32;2.88;;;1.33;;
27505;SDS011;14939;43.596;1.320;2022-07-03T13:28:59;2.75;;;1.38;;
27505;SDS011;14939;43.596;1.320;2022-07-03T13:31:25;4.97;;;1.48;;
27505;SDS011;14939;43.596;1.320;2022-07-03T13:33:50;3.88;;;1.48;;
27505;SDS011;14939;43.596;1.320;2022-07-03T13:36:16;2.13;;;1.30;;
27505;SDS011;14939;43.596;1.320;2022-07-03T13:38:43;2.35;;;1.10;;
27505;SDS011;14939;43.596;1.320;2022-07-03T13:41:09;3.45;;;1.20;;
27505;SDS011;14939;43.596;1.320;2022-07-03T13:43:35;4.55;;;1.23;;
27505;SDS011;14939;43.596;1.320;2022-07-03T13:46:01;2.17;;;1.33;;
27505;SDS011;14939;43.596;1.320;2022-07-03T13:48:27;2.28;;;1.08;;
27505;SDS011;14939;43.596;1.320;2022-07-03T13:50:53;3.08;;;1.20;;
27505;SDS011;14939;43.596;1.320;2022-07-03T13:53:19;2.92;;;1.20;;
27505;SDS011;14939;43.596;1.320;2022-07-03T13:55:44;1.92;;;1.30;;
27505;SDS011;14939;43.596;1.320;2022-07-03T13:58:10;2.28;;;1.00;;
27505;SDS011;14939;43.596;1.320;2022-07-03T14:00:36;5.20;;;1.25;;
27505;SDS011;14939;43.596;1.320;2022-07-03T14:03:02;5.57;;;1.63;;
27505;SDS011;14939;43.596;1.320;2022-07-03T14:05:28;3.92;;;1.27;;
27505;SDS011;14939;43.596;1.320;2022-07-03T14:07:54;4.35;;;1.30;;
27505;SDS011;14939;43.596;1.320;2022-07-03T14:10:20;4.30;;;1.40;;
27505;SDS011;14939;43.596;1.320;2022-07-03T14:12:47;5.60;;;1.25;;
27505;SDS011;14939;43.596;1.320;2022-07-03T14:15:13;3.30;;;1.25;;
27505;SDS011;14939;43.596;1.320;2022-07-03T14:17:40;3.70;;;1.33;;
27505;SDS011;14939;43.596;1.320;2022-07-03T14:20:06;4.10;;;1.30;;
27505;SDS011;14939;43.596;1.320;2022-07-03T14:22:32;2.60;;;1.50;;
27505;SDS011;14939;43.596;1.320;2022-07-03T14:24:57;3.35;;;1.30;;
27505;SDS011;14939;43.596;1.320;2022-07-03T14:27:23;3.55;;;1.20;;
27505;SDS011;14939;43.596;1.320;2022-07-03T14:30:07;4.82;;;1.30;;
27505;SDS011;14939;43.596;1.320;2022-07-03T14:32:52;4.18;;;1.35;;
27505;SDS011;14939;43.596;1.320;2022-07-03T14:35:17;2.45;;;1.25;;
27505;SDS011;14939;43.596;1.320;2022-07-03T14:37:43;1.80;;;1.13;;
27505;SDS011;14939;43.596;1.320;2022-07-03T14:40:09;3.88;;;1.65;;
27505;SDS011;14939;43.596;1.320;2022-07-03T14:42:35;3.35;;;1.40;;
27505;SDS011;14939;43.596;1.320;2022-07-03T14:45:00;2.20;;;1.20;;
27505;SDS011;14939;43.596;1.320;2022-07-03T14:47:26;4.18;;;1.10;;
27505;SDS011;14939;43.596;1.320;2022-07-03T14:49:52;1.88;;;1.10;;
27505;SDS011;14939;43.596;1.320;2022-07-03T14:52:17;3.00;;;1.20;;
27505;SDS011;14939;43.596;1.320;2022-07-03T14:54:43;2.75;;;1.10;;
27505;SDS011;14939;43.596;1.320;2022-07-03T14:57:13;4.18;;;1.20;;
27505;SDS011;14939;43.596;1.320;2022-07-03T15:02:22;1.08;;;0.90;;
27505;SDS011;14939;43.596;1.320;2022-07-03T15:07:15;2.20;;;1.25;;
27505;SDS011;14939;43.596;1.320;2022-07-03T15:09:52;2.92;;;1.25;;
27505;SDS011;14939;43.596;1.320;2022-07-03T15:12:27;5.15;;;1.23;;
27505;SDS011;14939;43.596;1.320;2022-07-03T15:14:54;2.70;;;1.05;;
27505;SDS011;14939;43.596;1.320;2022-07-03T15:17:23;1.95;;;0.93;;
27505;SDS011;14939;43.596;1.320;2022-07-03T15:19:49;3.08;;;1.00;;
27505;SDS011;14939;43.596;1.320;2022-07-03T15:22:19;4.65;;;1.10;;
27505;SDS011;14939;43.596;1.320;2022-07-03T15:24:46;2.80;;;1.10;;
27505;SDS011;14939;43.596;1.320;2022-07-03T15:27:23;3.58;;;1.00;;
27505;SDS011;14939;43.596;1.320;2022-07-03T15:29:50;2.33;;;1.00;;
27505;SDS011;14939;43.596;1.320;2022-07-03T15:32:16;4.50;;;1.30;;
27505;SDS011;14939;43.596;1.320;2022-07-03T15:34:43;3.00;;;1.05;;
27505;SDS011;14939;43.596;1.320;2022-07-03T15:50:08;5.55;;;1.00;;
27505;SDS011;14939;43.596;1.320;2022-07-03T15:52:41;1.80;;;1.10;;
27505;SDS011;14939;43.596;1.320;2022-07-03T15:55:09;2.00;;;1.02;;
27505;SDS011;14939;43.596;1.320;2022-07-03T16:00:15;2.40;;;1.20;;
27505;SDS011;14939;43.596;1.320;2022-07-03T16:05:28;2.95;;;1.15;;
27505;SDS011;14939;43.596;1.320;2022-07-03T16:07:57;1.60;;;1.13;;
27505;SDS011;14939;43.596;1.320;2022-07-03T16:10:25;4.40;;;1.20;;
27505;SDS011;14939;43.596;1.320;2022-07-03T16:12:52;3.22;;;1.25;;
27505;SDS011;14939;43.596;1.320;2022-07-03T16:15:18;4.30;;;1.20;;
27505;SDS011;14939;43.596;1.320;2022-07-03T16:17:45;4.45;;;1.40;;
27505;SDS011;14939;43.596;1.320;2022-07-03T16:20:12;3.45;;;1.20;;
27505;SDS011;14939;43.596;1.320;2022-07-03T16:22:39;2.75;;;1.10;;
27505;SDS011;14939;43.596;1.320;2022-07-03T16:25:06;3.15;;;1.33;;
27505;SDS011;14939;43.596;1.320;2022-07-03T16:27:33;4.75;;;1.60;;
27505;SDS011;14939;43.596;1.320;2022-07-03T16:29:59;3.70;;;1.25;;
27505;SDS011;14939;43.596;1.320;2022-07-03T16:32:39;1.90;;;1.20;;
27505;SDS011;14939;43.596;1.320;2022-07-03T16:35:07;3.70;;;1.63;;
27505;SDS011;14939;43.596;1.320;2022-07-03T16:38:08;5.18;;;1.35;;
27505;SDS011;14939;43.596;1.320;2022-07-03T16:40:29;2.58;;;1.30;;
27505;SDS011;14939;43.596;1.320;2022-07-03T16:42:59;4.70;;;1.27;;
27505;SDS011;14939;43.596;1.320;2022-07-03T16:45:29;2.63;;;1.13;;
27505;SDS011;14939;43.596;1.320;2022-07-03T16:47:56;5.13;;;1.40;;
27505;SDS011;14939;43.596;1.320;2022-07-03T16:50:33;3.92;;;1.30;;
27505;SDS011;14939;43.596;1.320;2022-07-03T16:52:58;3.05;;;1.50;;
27505;SDS011;14939;43.596;1.320;2022-07-03T16:55:24;3.47;;;1.50;;
27505;SDS011;14939;43.596;1.320;2022-07-03T16:57:54;8.05;;;1.50;;
27505;SDS011;14939;43.596;1.320;2022-07-03T17:00:23;3.15;;;1.35;;
27505;SDS011;14939;43.596;1.320;2022-07-03T17:02:51;3.17;;;1.40;;
27505;SDS011;14939;43.596;1.320;2022-07-03T17:05:18;4.18;;;1.35;;
27505;SDS011;14939;43.596;1.320;2022-07-03T17:07:47;2.85;;;1.30;;
27505;SDS011;14939;43.596;1.320;2022-07-03T17:10:14;3.15;;;1.50;;
27505;SDS011;14939;43.596;1.320;2022-07-03T17:12:43;5.85;;;1.40;;
27505;SDS011;14939;43.596;1.320;2022-07-03T17:15:13;3.38;;;1.30;;
27505;SDS011;14939;43.596;1.320;2022-07-03T17:20:26;6.97;;;1.90;;
27505;SDS011;14939;43.596;1.320;2022-07-03T17:22:59;4.65;;;1.63;;
27505;SDS011;14939;43.596;1.320;2022-07-03T17:25:33;6.47;;;1.45;;
27505;SDS011;14939;43.596;1.320;2022-07-03T17:28:01;8.55;;;1.90;;
27505;SDS011;14939;43.596;1.320;2022-07-03T17:30:33;4.55;;;1.50;;